sensor_id;sensor_type;location;lat;lon;timestamp;temperature;humidity
33105;DHT22;19476;51.448;6.674;2024-03-17T00:02:17;14.20;46.10
33105;DHT22;19476;51.448;6.674;2024-03-17T00:04:43;14.20;46.10
33105;DHT22;19476;51.448;6.674;2024-03-17T00:07:09;14.10;45.90
33105;DHT22;19476;51.448;6.674;2024-03-17T00:09:34;14.20;46.00
33105;DHT22;19476;51.448;6.674;2024-03-17T00:12:00;14.20;46.10
33105;DHT22;19476;51.448;6.674;2024-03-17T00:14:26;14.10;46.10
33105;DHT22;19476;51.448;6.674;2024-03-17T00:16:53;14.20;46.20
33105;DHT22;19476;51.448;6.674;2024-03-17T00:19:19;14.10;46.30
33105;DHT22;19476;51.448;6.674;2024-03-17T00:21:48;14.10;46.20
33105;DHT22;19476;51.448;6.674;2024-03-17T00:24:16;14.10;46.90
33105;DHT22;19476;51.448;6.674;2024-03-17T00:26:42;14.10;46.30
33105;DHT22;19476;51.448;6.674;2024-03-17T00:29:08;14.10;46.30
33105;DHT22;19476;51.448;6.674;2024-03-17T00:31:35;14.10;46.30
33105;DHT22;19476;51.448;6.674;2024-03-17T00:34:01;14.10;46.20
33105;DHT22;19476;51.448;6.674;2024-03-17T00:36:26;14.10;46.30
33105;DHT22;19476;51.448;6.674;2024-03-17T00:38:52;14.00;46.20
33105;DHT22;19476;51.448;6.674;2024-03-17T00:41:18;14.00;46.30
33105;DHT22;19476;51.448;6.674;2024-03-17T00:43:45;14.00;46.40
33105;DHT22;19476;51.448;6.674;2024-03-17T00:46:10;14.00;46.40
33105;DHT22;19476;51.448;6.674;2024-03-17T00:48:37;14.00;46.60
33105;DHT22;19476;51.448;6.674;2024-03-17T00:51:03;13.90;47.20
33105;DHT22;19476;51.448;6.674;2024-03-17T00:53:29;13.90;46.70
33105;DHT22;19476;51.448;6.674;2024-03-17T00:55:55;13.90;46.90
33105;DHT22;19476;51.448;6.674;2024-03-17T00:58:25;13.90;47.00
33105;DHT22;19476;51.448;6.674;2024-03-17T01:00:51;13.80;47.00
33105;DHT22;19476;51.448;6.674;2024-03-17T01:03:17;13.80;47.00
33105;DHT22;19476;51.448;6.674;2024-03-17T01:05:43;13.80;47.00
33105;DHT22;19476;51.448;6.674;2024-03-17T01:08:11;13.70;47.00
33105;DHT22;19476;51.448;6.674;2024-03-17T01:10:43;13.70;47.10
33105;DHT22;19476;51.448;6.674;2024-03-17T01:13:09;13.70;47.30
33105;DHT22;19476;51.448;6.674;2024-03-17T01:15:39;13.60;47.20
33105;DHT22;19476;51.448;6.674;2024-03-17T01:18:05;13.60;47.30
33105;DHT22;19476;51.448;6.674;2024-03-17T01:20:37;13.60;47.30
33105;DHT22;19476;51.448;6.674;2024-03-17T01:23:04;13.50;47.50
33105;DHT22;19476;51.448;6.674;2024-03-17T01:25:30;13.50;47.40
33105;DHT22;19476;51.448;6.674;2024-03-17T01:28:01;13.40;47.60
33105;DHT22;19476;51.448;6.674;2024-03-17T01:30:27;13.30;47.60
33105;DHT22;19476;51.448;6.674;2024-03-17T01:32:52;13.40;47.70
33105;DHT22;19476;51.448;6.674;2024-03-17T01:35:19;13.30;47.80
33105;DHT22;19476;51.448;6.674;2024-03-17T01:37:45;13.30;47.90
33105;DHT22;19476;51.448;6.674;2024-03-17T01:40:11;13.20;47.90
33105;DHT22;19476;51.448;6.674;2024-03-17T01:42:40;13.20;47.90
33105;DHT22;19476;51.448;6.674;2024-03-17T01:45:29;13.10;48.10
33105;DHT22;19476;51.448;6.674;2024-03-17T01:48:02;13.10;48.40
33105;DHT22;19476;51.448;6.674;2024-03-17T01:50:38;13.10;48.30
33105;DHT22;19476;51.448;6.674;2024-03-17T01:53:06;13.10;48.40
33105;DHT22;19476;51.448;6.674;2024-03-17T01:55:38;13.00;48.30
33105;DHT22;19476;51.448;6.674;2024-03-17T01:58:04;13.00;48.40
33105;DHT22;19476;51.448;6.674;2024-03-17T02:00:37;13.00;48.30
33105;DHT22;19476;51.448;6.674;2024-03-17T02:03:07;13.00;48.40
33105;DHT22;19476;51.448;6.674;2024-03-17T02:05:36;12.90;48.40
33105;DHT22;19476;51.448;6.674;2024-03-17T02:08:05;12.90;48.30
33105;DHT22;19476;51.448;6.674;2024-03-17T02:10:36;12.90;48.50
33105;DHT22;19476;51.448;6.674;2024-03-17T02:13:02;12.90;48.50
33105;DHT22;19476;51.448;6.674;2024-03-17T02:15:29;12.90;48.50
33105;DHT22;19476;51.448;6.674;2024-03-17T02:17:55;12.80;48.50
33105;DHT22;19476;51.448;6.674;2024-03-17T02:20:21;12.80;48.50
33105;DHT22;19476;51.448;6.674;2024-03-17T02:22:50;12.80;48.60
33105;DHT22;19476;51.448;6.674;2024-03-17T02:25:16;12.80;48.60
33105;DHT22;19476;51.448;6.674;2024-03-17T02:27:42;12.70;48.60
33105;DHT22;19476;51.448;6.674;2024-03-17T02:30:07;12.70;48.60
33105;DHT22;19476;51.448;6.674;2024-03-17T02:32:36;12.70;48.70
33105;DHT22;19476;51.448;6.674;2024-03-17T02:35:02;12.70;48.70
33105;DHT22;19476;51.448;6.674;2024-03-17T02:37:30;12.70;48.70
33105;DHT22;19476;51.448;6.674;2024-03-17T02:39:56;12.70;48.70
33105;DHT22;19476;51.448;6.674;2024-03-17T02:42:21;12.70;48.80
33105;DHT22;19476;51.448;6.674;2024-03-17T02:44:47;12.60;48.80
33105;DHT22;19476;51.448;6.674;2024-03-17T02:47:13;12.60;48.80
33105;DHT22;19476;51.448;6.674;2024-03-17T02:49:40;12.60;48.90
33105;DHT22;19476;51.448;6.674;2024-03-17T02:52:09;12.60;48.90
33105;DHT22;19476;51.448;6.674;2024-03-17T02:54:36;12.60;49.00
33105;DHT22;19476;51.448;6.674;2024-03-17T02:57:03;12.50;49.10
33105;DHT22;19476;51.448;6.674;2024-03-17T02:59:28;12.50;49.20
33105;DHT22;19476;51.448;6.674;2024-03-17T03:01:54;12.50;49.20
33105;DHT22;19476;51.448;6.674;2024-03-17T03:04:20;12.50;49.20
33105;DHT22;19476;51.448;6.674;2024-03-17T03:06:46;12.50;49.30
33105;DHT22;19476;51.448;6.674;2024-03-17T03:09:12;12.50;49.30
33105;DHT22;19476;51.448;6.674;2024-03-17T03:11:42;12.50;49.40
33105;DHT22;19476;51.448;6.674;2024-03-17T03:14:08;12.50;49.50
33105;DHT22;19476;51.448;6.674;2024-03-17T03:16:34;12.50;49.50
33105;DHT22;19476;51.448;6.674;2024-03-17T03:19:00;12.50;49.60
33105;DHT22;19476;51.448;6.674;2024-03-17T03:21:26;12.50;49.60
33105;DHT22;19476;51.448;6.674;2024-03-17T03:23:52;12.50;49.60
33105;DHT22;19476;51.448;6.674;2024-03-17T03:26:18;12.50;49.50
33105;DHT22;19476;51.448;6.674;2024-03-17T03:28:44;12.50;49.50
33105;DHT22;19476;51.448;6.674;2024-03-17T03:31:13;12.50;49.50
33105;DHT22;19476;51.448;6.674;2024-03-17T03:33:42;12.50;49.60
33105;DHT22;19476;51.448;6.674;2024-03-17T03:36:13;12.60;49.60
33105;DHT22;19476;51.448;6.674;2024-03-17T03:38:39;12.60;49.70
33105;DHT22;19476;51.448;6.674;2024-03-17T03:41:13;12.60;49.50
33105;DHT22;19476;51.448;6.674;2024-03-17T03:43:39;12.60;49.80
33105;DHT22;19476;51.448;6.674;2024-03-17T03:46:06;12.60;49.60
33105;DHT22;19476;51.448;6.674;2024-03-17T03:48:32;12.50;49.60
33105;DHT22;19476;51.448;6.674;2024-03-17T03:51:09;12.50;49.60
33105;DHT22;19476;51.448;6.674;2024-03-17T03:53:37;12.50;49.80
33105;DHT22;19476;51.448;6.674;2024-03-17T03:56:05;12.50;49.60
33105;DHT22;19476;51.448;6.674;2024-03-17T03:58:36;12.50;49.80
33105;DHT22;19476;51.448;6.674;2024-03-17T04:01:06;12.50;49.80
33105;DHT22;19476;51.448;6.674;2024-03-17T04:03:33;12.50;50.00
33105;DHT22;19476;51.448;6.674;2024-03-17T04:06:06;12.50;50.20
33105;DHT22;19476;51.448;6.674;2024-03-17T04:08:33;12.50;50.10
33105;DHT22;19476;51.448;6.674;2024-03-17T04:10:59;12.40;49.90
33105;DHT22;19476;51.448;6.674;2024-03-17T04:13:27;12.40;50.00
33105;DHT22;19476;51.448;6.674;2024-03-17T04:15:55;12.40;50.20
33105;DHT22;19476;51.448;6.674;2024-03-17T04:18:23;12.40;50.30
33105;DHT22;19476;51.448;6.674;2024-03-17T04:20:51;12.30;50.30
33105;DHT22;19476;51.448;6.674;2024-03-17T04:23:18;12.30;50.40
33105;DHT22;19476;51.448;6.674;2024-03-17T04:25:44;12.30;51.10
33105;DHT22;19476;51.448;6.674;2024-03-17T04:28:10;12.30;50.60
33105;DHT22;19476;51.448;6.674;2024-03-17T04:30:35;12.30;50.70
33105;DHT22;19476;51.448;6.674;2024-03-17T04:33:01;12.30;50.80
33105;DHT22;19476;51.448;6.674;2024-03-17T04:35:28;12.30;50.90
33105;DHT22;19476;51.448;6.674;2024-03-17T04:37:54;12.30;51.00
33105;DHT22;19476;51.448;6.674;2024-03-17T04:40:19;12.30;51.10
33105;DHT22;19476;51.448;6.674;2024-03-17T04:42:45;12.30;51.10
33105;DHT22;19476;51.448;6.674;2024-03-17T04:45:11;12.30;51.20
33105;DHT22;19476;51.448;6.674;2024-03-17T04:47:36;12.30;51.30
33105;DHT22;19476;51.448;6.674;2024-03-17T04:50:02;12.30;51.30
33105;DHT22;19476;51.448;6.674;2024-03-17T04:52:29;12.20;51.40
33105;DHT22;19476;51.448;6.674;2024-03-17T04:54:55;12.20;51.40
33105;DHT22;19476;51.448;6.674;2024-03-17T04:57:21;12.20;51.40
33105;DHT22;19476;51.448;6.674;2024-03-17T04:59:46;12.20;51.50
33105;DHT22;19476;51.448;6.674;2024-03-17T05:02:12;12.20;51.60
33105;DHT22;19476;51.448;6.674;2024-03-17T05:04:38;12.20;51.60
33105;DHT22;19476;51.448;6.674;2024-03-17T05:07:04;12.20;51.70
33105;DHT22;19476;51.448;6.674;2024-03-17T05:09:29;12.20;51.80
33105;DHT22;19476;51.448;6.674;2024-03-17T05:11:55;12.10;51.80
33105;DHT22;19476;51.448;6.674;2024-03-17T05:14:21;12.10;51.80
33105;DHT22;19476;51.448;6.674;2024-03-17T05:16:50;12.10;51.90
33105;DHT22;19476;51.448;6.674;2024-03-17T05:19:16;12.10;52.10
33105;DHT22;19476;51.448;6.674;2024-03-17T05:21:46;12.10;52.00
33105;DHT22;19476;51.448;6.674;2024-03-17T05:24:11;12.10;52.10
33105;DHT22;19476;51.448;6.674;2024-03-17T05:26:38;12.10;52.10
33105;DHT22;19476;51.448;6.674;2024-03-17T05:29:04;12.00;52.10
33105;DHT22;19476;51.448;6.674;2024-03-17T05:31:29;12.10;52.30
33105;DHT22;19476;51.448;6.674;2024-03-17T05:33:57;12.00;52.30
33105;DHT22;19476;51.448;6.674;2024-03-17T05:36:22;12.00;52.40
33105;DHT22;19476;51.448;6.674;2024-03-17T05:38:48;12.00;52.40
33105;DHT22;19476;51.448;6.674;2024-03-17T05:41:14;12.00;52.40
33105;DHT22;19476;51.448;6.674;2024-03-17T05:43:40;12.00;52.50
33105;DHT22;19476;51.448;6.674;2024-03-17T05:46:07;12.00;52.50
33105;DHT22;19476;51.448;6.674;2024-03-17T05:48:40;12.00;52.60
33105;DHT22;19476;51.448;6.674;2024-03-17T05:51:12;12.00;52.60
33105;DHT22;19476;51.448;6.674;2024-03-17T05:53:40;12.00;52.80
33105;DHT22;19476;51.448;6.674;2024-03-17T05:56:07;12.00;52.70
33105;DHT22;19476;51.448;6.674;2024-03-17T05:58:37;12.00;52.70
33105;DHT22;19476;51.448;6.674;2024-03-17T06:01:04;12.00;52.70
33105;DHT22;19476;51.448;6.674;2024-03-17T06:03:30;12.00;52.80
33105;DHT22;19476;51.448;6.674;2024-03-17T06:05:58;12.00;52.70
33105;DHT22;19476;51.448;6.674;2024-03-17T06:08:24;12.00;52.80
33105;DHT22;19476;51.448;6.674;2024-03-17T06:10:50;12.00;52.70
33105;DHT22;19476;51.448;6.674;2024-03-17T06:13:16;12.00;52.80
33105;DHT22;19476;51.448;6.674;2024-03-17T06:15:43;12.00;52.70
33105;DHT22;19476;51.448;6.674;2024-03-17T06:18:12;12.10;52.90
33105;DHT22;19476;51.448;6.674;2024-03-17T06:20:45;12.10;52.90
33105;DHT22;19476;51.448;6.674;2024-03-17T06:23:13;12.10;53.10
33105;DHT22;19476;51.448;6.674;2024-03-17T06:25:42;12.10;53.00
33105;DHT22;19476;51.448;6.674;2024-03-17T06:28:09;12.10;53.10
33105;DHT22;19476;51.448;6.674;2024-03-17T06:30:36;12.20;53.10
33105;DHT22;19476;51.448;6.674;2024-03-17T06:33:02;12.20;53.00
33105;DHT22;19476;51.448;6.674;2024-03-17T06:35:28;12.30;53.00
33105;DHT22;19476;51.448;6.674;2024-03-17T06:37:59;12.30;52.90
33105;DHT22;19476;51.448;6.674;2024-03-17T06:40:25;12.40;53.00
33105;DHT22;19476;51.448;6.674;2024-03-17T06:42:51;12.40;53.00
33105;DHT22;19476;51.448;6.674;2024-03-17T06:45:17;12.50;52.90
33105;DHT22;19476;51.448;6.674;2024-03-17T06:47:46;12.50;52.80
33105;DHT22;19476;51.448;6.674;2024-03-17T06:50:12;12.60;52.80
33105;DHT22;19476;51.448;6.674;2024-03-17T06:52:38;12.60;52.70
33105;DHT22;19476;51.448;6.674;2024-03-17T06:55:07;12.70;52.70
33105;DHT22;19476;51.448;6.674;2024-03-17T06:57:33;12.70;52.60
33105;DHT22;19476;51.448;6.674;2024-03-17T07:00:00;12.80;52.50
33105;DHT22;19476;51.448;6.674;2024-03-17T07:02:25;12.90;52.50
33105;DHT22;19476;51.448;6.674;2024-03-17T07:04:51;12.90;52.30
33105;DHT22;19476;51.448;6.674;2024-03-17T07:07:17;13.00;52.20
33105;DHT22;19476;51.448;6.674;2024-03-17T07:09:43;13.00;52.10
33105;DHT22;19476;51.448;6.674;2024-03-17T07:12:09;13.10;51.90
33105;DHT22;19476;51.448;6.674;2024-03-17T07:14:36;13.10;51.70
33105;DHT22;19476;51.448;6.674;2024-03-17T07:17:02;13.20;51.70
33105;DHT22;19476;51.448;6.674;2024-03-17T07:19:28;13.20;51.50
33105;DHT22;19476;51.448;6.674;2024-03-17T07:21:56;13.30;51.20
33105;DHT22;19476;51.448;6.674;2024-03-17T07:24:22;13.30;51.10
33105;DHT22;19476;51.448;6.674;2024-03-17T07:26:49;13.40;50.90
33105;DHT22;19476;51.448;6.674;2024-03-17T07:29:15;13.40;50.70
33105;DHT22;19476;51.448;6.674;2024-03-17T07:31:41;13.40;50.70
33105;DHT22;19476;51.448;6.674;2024-03-17T07:34:07;13.40;50.60
33105;DHT22;19476;51.448;6.674;2024-03-17T07:36:32;13.40;50.60
33105;DHT22;19476;51.448;6.674;2024-03-17T07:38:58;13.50;50.70
33105;DHT22;19476;51.448;6.674;2024-03-17T07:41:24;13.50;50.60
33105;DHT22;19476;51.448;6.674;2024-03-17T07:43:50;13.50;50.60
33105;DHT22;19476;51.448;6.674;2024-03-17T07:46:16;13.50;50.60
33105;DHT22;19476;51.448;6.674;2024-03-17T07:48:43;13.60;50.60
33105;DHT22;19476;51.448;6.674;2024-03-17T07:51:11;13.60;50.50
33105;DHT22;19476;51.448;6.674;2024-03-17T07:53:38;13.70;50.40
33105;DHT22;19476;51.448;6.674;2024-03-17T07:56:05;13.70;50.30
33105;DHT22;19476;51.448;6.674;2024-03-17T07:58:32;13.70;50.10
33105;DHT22;19476;51.448;6.674;2024-03-17T08:01:02;13.70;50.00
33105;DHT22;19476;51.448;6.674;2024-03-17T08:03:29;13.70;49.90
33105;DHT22;19476;51.448;6.674;2024-03-17T08:05:55;13.80;50.00
33105;DHT22;19476;51.448;6.674;2024-03-17T08:08:21;13.80;49.80
33105;DHT22;19476;51.448;6.674;2024-03-17T08:10:47;13.90;49.80
33105;DHT22;19476;51.448;6.674;2024-03-17T08:13:17;13.90;49.80
33105;DHT22;19476;51.448;6.674;2024-03-17T08:15:43;14.00;49.70
33105;DHT22;19476;51.448;6.674;2024-03-17T08:18:09;14.00;49.60
33105;DHT22;19476;51.448;6.674;2024-03-17T08:20:42;14.10;49.50
33105;DHT22;19476;51.448;6.674;2024-03-17T08:23:15;14.20;48.90
33105;DHT22;19476;51.448;6.674;2024-03-17T08:25:41;14.30;49.00
33105;DHT22;19476;51.448;6.674;2024-03-17T08:28:06;14.30;48.90
33105;DHT22;19476;51.448;6.674;2024-03-17T08:30:35;14.40;49.30
33105;DHT22;19476;51.448;6.674;2024-03-17T08:33:01;14.40;48.30
33105;DHT22;19476;51.448;6.674;2024-03-17T08:35:27;14.50;48.00
33105;DHT22;19476;51.448;6.674;2024-03-17T08:37:52;14.50;47.70
33105;DHT22;19476;51.448;6.674;2024-03-17T08:40:22;14.50;47.40
33105;DHT22;19476;51.448;6.674;2024-03-17T08:42:48;14.60;47.60
33105;DHT22;19476;51.448;6.674;2024-03-17T08:45:15;14.60;47.20
33105;DHT22;19476;51.448;6.674;2024-03-17T08:47:41;14.60;47.10
33105;DHT22;19476;51.448;6.674;2024-03-17T08:50:07;14.70;47.20
33105;DHT22;19476;51.448;6.674;2024-03-17T08:52:36;14.70;47.20
33105;DHT22;19476;51.448;6.674;2024-03-17T08:55:02;14.70;47.00
33105;DHT22;19476;51.448;6.674;2024-03-17T08:57:29;14.80;47.20
33105;DHT22;19476;51.448;6.674;2024-03-17T08:59:55;14.80;47.20
33105;DHT22;19476;51.448;6.674;2024-03-17T09:02:21;14.80;47.20
33105;DHT22;19476;51.448;6.674;2024-03-17T09:04:47;14.90;47.10
33105;DHT22;19476;51.448;6.674;2024-03-17T09:07:13;14.90;47.20
33105;DHT22;19476;51.448;6.674;2024-03-17T09:09:41;14.90;47.70
33105;DHT22;19476;51.448;6.674;2024-03-17T09:12:08;15.00;47.20
33105;DHT22;19476;51.448;6.674;2024-03-17T09:14:34;15.00;47.30
33105;DHT22;19476;51.448;6.674;2024-03-17T09:16:59;15.10;47.30
33105;DHT22;19476;51.448;6.674;2024-03-17T09:19:25;15.10;47.40
33105;DHT22;19476;51.448;6.674;2024-03-17T09:21:51;15.20;47.30
33105;DHT22;19476;51.448;6.674;2024-03-17T09:24:16;15.20;47.20
33105;DHT22;19476;51.448;6.674;2024-03-17T09:26:42;15.20;47.30
33105;DHT22;19476;51.448;6.674;2024-03-17T09:29:08;15.30;47.30
33105;DHT22;19476;51.448;6.674;2024-03-17T09:31:34;15.30;47.20
33105;DHT22;19476;51.448;6.674;2024-03-17T09:34:02;15.40;47.40
33105;DHT22;19476;51.448;6.674;2024-03-17T09:36:28;15.40;47.10
33105;DHT22;19476;51.448;6.674;2024-03-17T09:38:53;15.50;46.80
33105;DHT22;19476;51.448;6.674;2024-03-17T09:41:23;15.50;46.70
33105;DHT22;19476;51.448;6.674;2024-03-17T09:43:54;15.50;46.60
33105;DHT22;19476;51.448;6.674;2024-03-17T09:46:26;15.60;46.90
33105;DHT22;19476;51.448;6.674;2024-03-17T09:48:53;15.60;46.70
33105;DHT22;19476;51.448;6.674;2024-03-17T09:51:23;15.70;46.50
33105;DHT22;19476;51.448;6.674;2024-03-17T09:53:49;15.70;46.30
33105;DHT22;19476;51.448;6.674;2024-03-17T09:56:17;15.70;46.60
33105;DHT22;19476;51.448;6.674;2024-03-17T09:58:46;15.60;46.30
33105;DHT22;19476;51.448;6.674;2024-03-17T10:01:13;15.70;46.40
33105;DHT22;19476;51.448;6.674;2024-03-17T10:03:46;15.70;46.10
33105;DHT22;19476;51.448;6.674;2024-03-17T10:06:20;15.80;46.20
33105;DHT22;19476;51.448;6.674;2024-03-17T10:08:50;15.80;46.20
33105;DHT22;19476;51.448;6.674;2024-03-17T10:11:21;15.90;46.20
33105;DHT22;19476;51.448;6.674;2024-03-17T10:13:59;15.90;45.80
33105;DHT22;19476;51.448;6.674;2024-03-17T10:16:29;16.00;46.10
33105;DHT22;19476;51.448;6.674;2024-03-17T10:19:13;16.00;45.70
33105;DHT22;19476;51.448;6.674;2024-03-17T10:21:43;16.00;45.50
33105;DHT22;19476;51.448;6.674;2024-03-17T10:24:13;16.10;45.80
33105;DHT22;19476;51.448;6.674;2024-03-17T10:26:43;16.10;45.80
33105;DHT22;19476;51.448;6.674;2024-03-17T10:29:31;16.20;45.70
33105;DHT22;19476;51.448;6.674;2024-03-17T10:32:12;16.20;45.30
33105;DHT22;19476;51.448;6.674;2024-03-17T10:34:44;16.30;45.60
33105;DHT22;19476;51.448;6.674;2024-03-17T10:37:18;16.40;45.60
33105;DHT22;19476;51.448;6.674;2024-03-17T10:39:53;16.40;44.80
33105;DHT22;19476;51.448;6.674;2024-03-17T10:42:27;16.50;45.30
33105;DHT22;19476;51.448;6.674;2024-03-17T10:44:54;16.50;45.10
33105;DHT22;19476;51.448;6.674;2024-03-17T10:47:22;16.60;45.30
33105;DHT22;19476;51.448;6.674;2024-03-17T10:49:53;16.60;45.10
33105;DHT22;19476;51.448;6.674;2024-03-17T10:52:20;16.70;44.80
33105;DHT22;19476;51.448;6.674;2024-03-17T10:54:51;16.70;44.80
33105;DHT22;19476;51.448;6.674;2024-03-17T10:57:45;16.80;44.50
33105;DHT22;19476;51.448;6.674;2024-03-17T11:00:14;16.90;44.50
33105;DHT22;19476;51.448;6.674;2024-03-17T11:02:46;16.90;44.70
33105;DHT22;19476;51.448;6.674;2024-03-17T11:07:46;17.00;44.50
33105;DHT22;19476;51.448;6.674;2024-03-17T11:10:34;17.10;44.50
33105;DHT22;19476;51.448;6.674;2024-03-17T11:13:02;17.10;43.80
33105;DHT22;19476;51.448;6.674;2024-03-17T11:20:37;17.20;43.80
33105;DHT22;19476;51.448;6.674;2024-03-17T11:23:03;17.30;44.00
33105;DHT22;19476;51.448;6.674;2024-03-17T11:28:00;17.40;44.10
33105;DHT22;19476;51.448;6.674;2024-03-17T11:38:57;17.70;43.30
33105;DHT22;19476;51.448;6.674;2024-03-17T11:46:54;17.90;42.80
33105;DHT22;19476;51.448;6.674;2024-03-17T11:51:50;18.00;43.00
33105;DHT22;19476;51.448;6.674;2024-03-17T11:54:19;18.00;43.10
33105;DHT22;19476;51.448;6.674;2024-03-17T11:56:49;18.00;43.00
33105;DHT22;19476;51.448;6.674;2024-03-17T11:59:16;18.10;42.80
33105;DHT22;19476;51.448;6.674;2024-03-17T12:01:54;18.10;43.00
33105;DHT22;19476;51.448;6.674;2024-03-17T12:04:21;18.20;42.50
33105;DHT22;19476;51.448;6.674;2024-03-17T12:06:52;18.30;43.00
33105;DHT22;19476;51.448;6.674;2024-03-17T12:09:26;18.30;43.00
33105;DHT22;19476;51.448;6.674;2024-03-17T12:12:04;18.40;42.70
33105;DHT22;19476;51.448;6.674;2024-03-17T12:14:31;18.40;42.40
33105;DHT22;19476;51.448;6.674;2024-03-17T12:17:07;18.50;42.80
33105;DHT22;19476;51.448;6.674;2024-03-17T12:19:34;18.60;42.50
33105;DHT22;19476;51.448;6.674;2024-03-17T12:22:01;18.70;42.60
33105;DHT22;19476;51.448;6.674;2024-03-17T12:24:32;18.70;42.20
33105;DHT22;19476;51.448;6.674;2024-03-17T12:26:59;18.80;42.30
33105;DHT22;19476;51.448;6.674;2024-03-17T12:29:40;18.90;42.40
33105;DHT22;19476;51.448;6.674;2024-03-17T12:32:12;19.00;42.00
33105;DHT22;19476;51.448;6.674;2024-03-17T12:34:39;19.10;41.80
33105;DHT22;19476;51.448;6.674;2024-03-17T12:37:05;19.10;41.80
33105;DHT22;19476;51.448;6.674;2024-03-17T12:39:33;19.20;41.70
33105;DHT22;19476;51.448;6.674;2024-03-17T12:44:57;19.40;41.30
33105;DHT22;19476;51.448;6.674;2024-03-17T12:47:28;19.50;41.50
33105;DHT22;19476;51.448;6.674;2024-03-17T12:49:54;19.70;41.40
33105;DHT22;19476;51.448;6.674;2024-03-17T13:00:37;20.10;40.30
33105;DHT22;19476;51.448;6.674;2024-03-17T13:03:04;20.10;40.50
33105;DHT22;19476;51.448;6.674;2024-03-17T13:05:34;20.10;40.40
33105;DHT22;19476;51.448;6.674;2024-03-17T13:08:00;20.10;40.10
33105;DHT22;19476;51.448;6.674;2024-03-17T13:10:28;20.10;39.90
33105;DHT22;19476;51.448;6.674;2024-03-17T13:15:30;20.00;39.60
33105;DHT22;19476;51.448;6.674;2024-03-17T13:18:04;20.00;39.80
33105;DHT22;19476;51.448;6.674;2024-03-17T13:20:31;19.70;39.70
33105;DHT22;19476;51.448;6.674;2024-03-17T13:22:57;19.90;39.80
33105;DHT22;19476;51.448;6.674;2024-03-17T13:25:26;19.90;39.90
33105;DHT22;19476;51.448;6.674;2024-03-17T13:27:55;19.90;39.80
33105;DHT22;19476;51.448;6.674;2024-03-17T13:30:24;19.80;40.10
33105;DHT22;19476;51.448;6.674;2024-03-17T13:32:51;19.80;40.00
33105;DHT22;19476;51.448;6.674;2024-03-17T13:35:23;19.80;40.10
33105;DHT22;19476;51.448;6.674;2024-03-17T13:37:50;19.80;40.20
33105;DHT22;19476;51.448;6.674;2024-03-17T13:40:18;19.70;39.90
33105;DHT22;19476;51.448;6.674;2024-03-17T13:42:50;19.70;40.00
33105;DHT22;19476;51.448;6.674;2024-03-17T13:45:17;19.60;39.80
33105;DHT22;19476;51.448;6.674;2024-03-17T13:47:53;19.60;40.00
33105;DHT22;19476;51.448;6.674;2024-03-17T13:50:20;19.60;39.80
33105;DHT22;19476;51.448;6.674;2024-03-17T13:52:46;19.50;39.90
33105;DHT22;19476;51.448;6.674;2024-03-17T13:55:19;19.50;40.00
33105;DHT22;19476;51.448;6.674;2024-03-17T13:57:53;19.50;40.10
33105;DHT22;19476;51.448;6.674;2024-03-17T14:00:29;19.50;40.10
33105;DHT22;19476;51.448;6.674;2024-03-17T14:02:55;19.40;40.10
33105;DHT22;19476;51.448;6.674;2024-03-17T14:05:27;19.40;40.40
33105;DHT22;19476;51.448;6.674;2024-03-17T14:07:54;19.40;40.50
33105;DHT22;19476;51.448;6.674;2024-03-17T14:10:22;19.30;40.60
33105;DHT22;19476;51.448;6.674;2024-03-17T14:12:48;19.30;40.60
33105;DHT22;19476;51.448;6.674;2024-03-17T14:15:15;19.30;40.70
33105;DHT22;19476;51.448;6.674;2024-03-17T14:17:44;19.30;40.70
33105;DHT22;19476;51.448;6.674;2024-03-17T14:20:10;19.30;40.80
33105;DHT22;19476;51.448;6.674;2024-03-17T14:22:39;19.20;40.90
33105;DHT22;19476;51.448;6.674;2024-03-17T14:25:09;19.30;41.10
33105;DHT22;19476;51.448;6.674;2024-03-17T14:27:38;19.30;41.40
33105;DHT22;19476;51.448;6.674;2024-03-17T14:30:04;19.20;41.00
33105;DHT22;19476;51.448;6.674;2024-03-17T14:32:31;19.30;41.30
33105;DHT22;19476;51.448;6.674;2024-03-17T14:34:57;19.20;41.30
33105;DHT22;19476;51.448;6.674;2024-03-17T14:37:23;19.30;41.40
33105;DHT22;19476;51.448;6.674;2024-03-17T14:39:52;19.30;41.50
33105;DHT22;19476;51.448;6.674;2024-03-17T14:42:21;19.30;41.40
33105;DHT22;19476;51.448;6.674;2024-03-17T14:44:47;19.30;41.60
33105;DHT22;19476;51.448;6.674;2024-03-17T14:47:14;19.30;41.60
33105;DHT22;19476;51.448;6.674;2024-03-17T14:49:40;19.30;41.70
33105;DHT22;19476;51.448;6.674;2024-03-17T14:52:07;19.40;41.70
33105;DHT22;19476;51.448;6.674;2024-03-17T14:54:34;19.40;41.60
33105;DHT22;19476;51.448;6.674;2024-03-17T14:57:00;19.40;41.70
33105;DHT22;19476;51.448;6.674;2024-03-17T14:59:26;19.40;41.80
33105;DHT22;19476;51.448;6.674;2024-03-17T15:01:53;19.40;41.80
33105;DHT22;19476;51.448;6.674;2024-03-17T15:04:18;19.40;41.90
33105;DHT22;19476;51.448;6.674;2024-03-17T15:06:44;19.50;41.90
33105;DHT22;19476;51.448;6.674;2024-03-17T15:12:33;19.50;41.90
33105;DHT22;19476;51.448;6.674;2024-03-17T15:15:02;19.60;41.80
33105;DHT22;19476;51.448;6.674;2024-03-17T15:17:28;19.40;41.70
33105;DHT22;19476;51.448;6.674;2024-03-17T15:19:54;19.60;41.80
33105;DHT22;19476;51.448;6.674;2024-03-17T15:22:20;19.70;41.70
33105;DHT22;19476;51.448;6.674;2024-03-17T15:24:47;19.70;41.40
33105;DHT22;19476;51.448;6.674;2024-03-17T15:27:14;19.70;41.30
33105;DHT22;19476;51.448;6.674;2024-03-17T15:29:40;19.70;41.30
33105;DHT22;19476;51.448;6.674;2024-03-17T15:32:10;19.70;41.20
33105;DHT22;19476;51.448;6.674;2024-03-17T15:34:37;19.80;40.90
33105;DHT22;19476;51.448;6.674;2024-03-17T15:37:04;19.80;40.60
33105;DHT22;19476;51.448;6.674;2024-03-17T15:39:30;19.70;40.50
33105;DHT22;19476;51.448;6.674;2024-03-17T15:41:56;19.70;40.20
33105;DHT22;19476;51.448;6.674;2024-03-17T15:44:22;19.70;40.20
33105;DHT22;19476;51.448;6.674;2024-03-17T15:46:47;19.70;40.30
33105;DHT22;19476;51.448;6.674;2024-03-17T15:49:15;19.70;40.40
33105;DHT22;19476;51.448;6.674;2024-03-17T15:51:41;19.70;40.40
33105;DHT22;19476;51.448;6.674;2024-03-17T15:54:07;19.70;40.10
33105;DHT22;19476;51.448;6.674;2024-03-17T15:56:33;19.70;40.40
33105;DHT22;19476;51.448;6.674;2024-03-17T15:59:00;19.70;40.70
33105;DHT22;19476;51.448;6.674;2024-03-17T16:01:27;19.70;40.90
33105;DHT22;19476;51.448;6.674;2024-03-17T16:03:52;19.70;40.80
33105;DHT22;19476;51.448;6.674;2024-03-17T16:06:19;19.70;40.60
33105;DHT22;19476;51.448;6.674;2024-03-17T16:08:48;19.70;40.50
33105;DHT22;19476;51.448;6.674;2024-03-17T16:11:17;19.70;40.40
33105;DHT22;19476;51.448;6.674;2024-03-17T16:13:48;19.80;40.30
33105;DHT22;19476;51.448;6.674;2024-03-17T16:16:17;19.70;40.10
33105;DHT22;19476;51.448;6.674;2024-03-17T16:18:46;19.70;40.30